Time;durP1;ratioP1;P1;durP2;ratioP2;P2;SDS_P1;SDS_P2;PMS_P1;PMS_P2;Temp;Humidity;BMP_temperature;BMP_pressure;BME280_temperature;BME280_humidity;BME280_pressure;Samples;Min_cycle;Max_cycle;Signal;HPM_P1;HPM_P2
2023/04/21 00:00:58;;;;;;;25.23;18.07;;;9.20;99.90;;;;;;4759362;30;20785;-79
2023/04/21 00:03:26;;;;;;;26.27;18.17;;;9.20;99.90;;;;;;4744801;30;20316;-79
2023/04/21 00:05:57;;;;;;;24.13;18.97;;;9.20;99.90;;;;;;4789968;30;20634;-79
2023/04/21 00:08:25;;;;;;;26.43;17.83;;;9.20;99.90;;;;;;4774132;30;20797;-79
2023/04/21 00:10:51;;;;;;;25.60;18.10;;;9.20;99.90;;;;;;4759456;30;20293;-79
2023/04/21 00:13:16;;;;;;;27.63;18.57;;;9.20;99.90;;;;;;4789322;30;20409;-79
2023/04/21 00:15:42;;;;;;;24.47;17.87;;;9.20;99.90;;;;;;4773353;30;20051;-79
2023/04/21 00:18:08;;;;;;;25.07;17.20;;;9.10;99.90;;;;;;4789678;30;20492;-79
2023/04/21 00:20:35;;;;;;;25.63;17.40;;;9.10;99.90;;;;;;4758582;30;20055;-79
2023/04/21 00:23:00;;;;;;;23.77;17.57;;;9.10;99.90;;;;;;4774114;30;20481;-79
2023/04/21 00:25:27;;;;;;;25.37;17.77;;;9.10;99.90;;;;;;4773687;30;20303;-79
2023/04/21 00:27:52;;;;;;;23.40;16.93;;;9.10;99.90;;;;;;4773552;30;20051;-79
2023/04/21 00:30:18;;;;;;;24.87;17.77;;;9.10;99.90;;;;;;4758813;30;20312;-79
2023/04/21 00:32:44;;;;;;;25.73;16.93;;;9.10;99.90;;;;;;4790292;30;20058;-79
2023/04/21 00:35:10;;;;;;;25.33;17.83;;;9.10;99.90;;;;;;4773017;30;20138;-79
2023/04/21 00:37:35;;;;;;;25.53;17.63;;;9.10;99.90;;;;;;4772904;30;20111;-79
2023/04/21 00:40:03;;;;;;;27.70;18.77;;;9.10;99.90;;;;;;4789623;30;20571;-79
2023/04/21 00:42:29;;;;;;;23.50;17.20;;;9.00;99.90;;;;;;4789782;30;20063;-79
2023/04/21 00:44:55;;;;;;;26.43;17.13;;;9.00;99.90;;;;;;4758797;30;20292;-79
2023/04/21 00:47:20;;;;;;;26.27;18.43;;;9.00;99.90;;;;;;4789031;30;20102;-79
2023/04/21 00:49:47;;;;;;;24.30;17.90;;;9.00;99.90;;;;;;4789185;30;20679;-80
2023/04/21 00:52:16;;;;;;;23.80;17.10;;;8.90;99.90;;;;;;4774025;30;20051;-80
2023/04/21 00:54:42;;;;;;;25.27;16.00;;;8.90;99.90;;;;;;4789069;30;20396;-79
2023/04/21 00:57:09;;;;;;;24.30;18.23;;;8.90;99.90;;;;;;4789071;30;20300;-80
2023/04/21 00:59:35;;;;;;;25.67;17.00;;;8.90;99.90;;;;;;4789082;30;20281;-80
2023/04/21 01:02:01;;;;;;;24.07;16.97;;;8.90;99.90;;;;;;4773430;30;20412;-79
2023/04/21 01:04:28;;;;;;;23.63;16.80;;;8.90;99.90;;;;;;4773178;30;20392;-80
2023/04/21 01:06:53;;;;;;;25.03;15.80;;;8.90;99.90;;;;;;4759104;30;20179;-79
2023/04/21 01:09:20;;;;;;;22.60;16.43;;;8.80;99.90;;;;;;4788666;30;20297;-80
2023/04/21 01:12:04;;;;;;;22.87;16.13;;;8.80;99.90;;;;;;4788967;30;20058;-79
2023/04/21 01:14:30;;;;;;;26.17;16.67;;;8.80;99.90;;;;;;4787747;30;20397;-79
2023/04/21 01:16:57;;;;;;;21.13;14.60;;;8.80;99.90;;;;;;4788719;30;20371;-79
2023/04/21 01:19:24;;;;;;;21.67;16.17;;;8.70;99.90;;;;;;4772712;30;20289;-80
2023/04/21 01:21:56;;;;;;;22.13;15.70;;;8.70;99.90;;;;;;4772938;30;20303;-80
2023/04/21 01:24:23;;;;;;;25.60;16.03;;;8.70;99.90;;;;;;4772782;30;20377;-80
2023/04/21 01:26:49;;;;;;;21.20;14.73;;;8.60;99.90;;;;;;4772809;30;20300;-80
2023/04/21 01:29:16;;;;;;;22.50;14.40;;;8.70;99.90;;;;;;4788534;30;20296;-80
2023/04/21 01:31:42;;;;;;;22.30;15.43;;;8.70;99.90;;;;;;4773298;30;20380;-80
2023/04/21 01:34:08;;;;;;;22.83;14.83;;;8.60;99.90;;;;;;4773065;30;20345;-80
2023/04/21 01:36:37;;;;;;;25.27;15.83;;;8.60;99.90;;;;;;4788585;30;20297;-80
2023/04/21 01:39:03;;;;;;;21.10;14.10;;;8.60;99.90;;;;;;4772522;30;20051;-80
2023/04/21 01:41:29;;;;;;;19.83;13.23;;;8.60;99.90;;;;;;4788781;30;20340;-80
2023/04/21 01:43:55;;;;;;;20.63;14.80;;;8.70;99.90;;;;;;4757891;30;20336;-80
2023/04/21 01:46:21;;;;;;;22.73;15.23;;;8.70;99.90;;;;;;4772513;30;20326;-80
2023/04/21 01:48:47;;;;;;;20.07;14.70;;;8.70;99.90;;;;;;4772856;30;20477;-80
2023/04/21 01:51:12;;;;;;;23.33;15.30;;;8.60;99.90;;;;;;4772481;30;20051;-80
2023/04/21 01:53:38;;;;;;;22.47;15.03;;;8.60;99.90;;;;;;4788063;30;20074;-80
2023/04/21 01:56:04;;;;;;;20.07;15.40;;;8.60;99.90;;;;;;4788655;30;20055;-79
2023/04/21 01:58:30;;;;;;;23.07;14.87;;;8.60;99.90;;;;;;4788399;30;20087;-80
2023/04/21 02:00:55;;;;;;;21.07;15.67;;;8.60;99.90;;;;;;4788345;30;20404;-80
2023/04/21 02:03:21;;;;;;;26.70;15.80;;;8.50;99.90;;;;;;4787623;30;20055;-80
2023/04/21 02:05:49;;;;;;;19.63;15.47;;;8.60;99.90;;;;;;4788232;30;20145;-80
2023/04/21 02:08:16;;;;;;;25.43;14.90;;;8.50;99.90;;;;;;4788266;30;20047;-80
2023/04/21 02:10:41;;;;;;;22.67;14.83;;;8.50;99.90;;;;;;4788207;30;20714;-80
2023/04/21 02:13:07;;;;;;;26.97;14.67;;;8.50;99.90;;;;;;4772059;30;20387;-80
2023/04/21 02:15:33;;;;;;;19.70;14.30;;;8.50;99.90;;;;;;4772657;30;20051;-80
2023/04/21 02:17:59;;;;;;;21.23;14.23;;;8.50;99.90;;;;;;4788183;30;20481;-80
2023/04/21 02:20:25;;;;;;;22.77;14.70;;;8.50;99.90;;;;;;4772110;30;20054;-80
2023/04/21 02:22:50;;;;;;;23.33;15.40;;;8.50;99.90;;;;;;4787046;30;20374;-79
2023/04/21 02:25:16;;;;;;;21.37;15.10;;;8.40;99.90;;;;;;4771814;30;20293;-80
2023/04/21 02:27:42;;;;;;;22.93;14.77;;;8.40;99.90;;;;;;4771874;30;20066;-79
2023/04/21 02:30:08;;;;;;;22.20;14.77;;;8.30;99.90;;;;;;4788093;30;20055;-79
2023/04/21 02:32:34;;;;;;;19.67;14.30;;;8.30;99.90;;;;;;4772116;30;20052;-80
2023/04/21 02:34:59;;;;;;;19.30;14.67;;;8.40;99.90;;;;;;4772656;30;20408;-80
2023/04/21 02:37:25;;;;;;;23.77;15.73;;;8.30;99.90;;;;;;4788024;30;20128;-80
2023/04/21 02:39:51;;;;;;;19.93;14.40;;;8.30;99.90;;;;;;4787731;30;20489;-79
2023/04/21 02:42:17;;;;;;;21.90;15.20;;;8.30;99.90;;;;;;4772191;30;20088;-80
2023/04/21 02:44:42;;;;;;;22.90;14.97;;;8.30;99.90;;;;;;4772602;30;20051;-80
2023/04/21 02:47:08;;;;;;;20.23;15.00;;;8.30;99.90;;;;;;4787672;30;20055;-80
2023/04/21 02:49:34;;;;;;;19.43;13.67;;;8.30;99.90;;;;;;4772039;30;20052;-80
2023/04/21 02:51:59;;;;;;;21.60;14.43;;;8.30;99.90;;;;;;4787411;30;20083;-80
2023/04/21 02:54:25;;;;;;;19.30;12.77;;;8.40;99.90;;;;;;4772496;30;20063;-80
2023/04/21 02:56:51;;;;;;;24.40;13.67;;;8.40;99.90;;;;;;4787857;30;20500;-80
2023/04/21 02:59:16;;;;;;;19.73;13.07;;;8.50;99.90;;;;;;4772741;29;20109;-81
2023/04/21 03:01:42;;;;;;;20.50;13.90;;;8.50;99.90;;;;;;4760118;30;20047;-80
2023/04/21 03:04:08;;;;;;;24.17;13.10;;;8.50;99.90;;;;;;4791362;30;20051;-80
2023/04/21 03:06:34;;;;;;;21.33;13.17;;;8.50;99.90;;;;;;4775818;30;20130;-80
2023/04/21 03:08:59;;;;;;;21.97;13.43;;;8.60;99.90;;;;;;4775211;30;20061;-80
2023/04/21 03:11:25;;;;;;;19.03;13.70;;;8.60;99.90;;;;;;4789661;30;20488;-80
2023/04/21 03:13:51;;;;;;;20.23;14.17;;;8.50;99.90;;;;;;4760308;30;20086;-80
2023/04/21 03:16:16;;;;;;;22.97;12.97;;;8.60;99.90;;;;;;4790943;30;20059;-80
2023/04/21 03:18:42;;;;;;;21.90;13.30;;;8.60;99.90;;;;;;4774756;30;20062;-80
2023/04/21 03:21:08;;;;;;;17.77;12.43;;;8.60;99.90;;;;;;4760452;30;20062;-80
2023/04/21 03:23:34;;;;;;;20.17;13.10;;;8.60;99.90;;;;;;4790678;30;20090;-80
2023/04/21 03:25:59;;;;;;;22.93;13.70;;;8.60;99.90;;;;;;4790687;30;20051;-80
2023/04/21 03:28:25;;;;;;;19.23;12.73;;;8.50;99.90;;;;;;4760287;30;20116;-80
2023/04/21 03:30:51;;;;;;;19.97;12.80;;;8.60;99.90;;;;;;4760220;30;20047;-80
2023/04/21 03:33:16;;;;;;;21.63;12.73;;;8.60;99.90;;;;;;4791023;30;20052;-80
2023/04/21 03:35:42;;;;;;;20.70;11.80;;;8.70;99.90;;;;;;4759732;30;20138;-80
2023/04/21 03:38:08;;;;;;;27.03;14.53;;;8.70;99.90;;;;;;4774771;30;20055;-80
2023/04/21 03:40:33;;;;;;;19.37;11.80;;;8.70;99.90;;;;;;4790467;30;20504;-80
2023/04/21 03:42:59;;;;;;;19.97;13.87;;;8.70;99.90;;;;;;4789873;30;20093;-80
2023/04/21 03:45:25;;;;;;;21.27;12.57;;;8.70;99.90;;;;;;4774393;30;20104;-80
2023/04/21 03:47:54;;;;;;;21.67;13.37;;;8.80;99.90;;;;;;4789682;30;20441;-80
2023/04/21 03:50:20;;;;;;;16.33;11.43;;;8.80;99.90;;;;;;4789534;30;20061;-80
2023/04/21 03:52:46;;;;;;;18.43;12.70;;;8.80;99.90;;;;;;4788994;30;20304;-80
2023/04/21 03:55:12;;;;;;;22.17;12.90;;;8.80;99.90;;;;;;4774206;30;20626;-80
2023/04/21 03:57:41;;;;;;;20.83;13.23;;;8.80;99.90;;;;;;4774340;30;20055;-80
2023/04/21 04:00:11;;;;;;;19.03;11.93;;;8.80;99.90;;;;;;4774044;30;20393;-80
2023/04/21 04:02:37;;;;;;;17.90;11.60;;;8.80;99.90;;;;;;4789855;30;20285;-80
2023/04/21 04:05:04;;;;;;;20.97;11.67;;;8.90;99.90;;;;;;4774520;30;20054;-80
2023/04/21 04:07:31;;;;;;;17.63;11.93;;;8.80;99.90;;;;;;4774127;30;20055;-81
2023/04/21 04:09:57;;;;;;;21.50;12.27;;;8.80;99.90;;;;;;4790243;30;20366;-80
2023/04/21 04:12:22;;;;;;;19.70;11.73;;;8.90;99.90;;;;;;4788999;29;20778;-80
2023/04/21 04:14:48;;;;;;;20.13;11.77;;;8.90;99.90;;;;;;4790320;30;20043;-80
2023/04/21 04:17:14;;;;;;;20.23;12.53;;;8.80;99.90;;;;;;4774078;30;20084;-80
2023/04/21 04:19:39;;;;;;;18.77;11.43;;;8.80;99.90;;;;;;4773852;30;20055;-80
2023/04/21 04:22:05;;;;;;;20.50;12.47;;;8.80;99.90;;;;;;4789779;30;20059;-80
2023/04/21 04:24:32;;;;;;;19.00;13.17;;;8.80;99.90;;;;;;4773776;30;20111;-81
2023/04/21 04:26:58;;;;;;;17.03;11.60;;;8.80;99.90;;;;;;4789751;30;20055;-80
2023/04/21 04:29:25;;;;;;;21.40;12.43;;;8.70;99.90;;;;;;4773828;30;20773;-80
2023/04/21 04:31:51;;;;;;;16.93;11.27;;;8.80;99.90;;;;;;4773755;30;20297;-80
2023/04/21 04:34:18;;;;;;;16.57;12.20;;;8.80;99.90;;;;;;4773759;30;20817;-80
2023/04/21 04:36:44;;;;;;;20.07;13.03;;;8.80;99.90;;;;;;4773329;30;20131;-80
2023/04/21 04:39:11;;;;;;;20.80;12.50;;;8.80;99.90;;;;;;4773393;30;20297;-80
2023/04/21 04:41:37;;;;;;;18.30;12.53;;;8.80;99.90;;;;;;4773672;30;20304;-80
2023/04/21 04:44:04;;;;;;;19.00;12.53;;;8.80;99.90;;;;;;4789951;30;20346;-80
2023/04/21 04:46:30;;;;;;;22.17;12.30;;;8.80;99.90;;;;;;4758686;30;20688;-80
2023/04/21 04:48:56;;;;;;;20.33;11.20;;;8.80;99.90;;;;;;4774259;30;20754;-79
2023/04/21 04:51:22;;;;;;;18.43;12.23;;;8.80;99.90;;;;;;4774150;30;20377;-80
2023/04/21 04:53:48;;;;;;;18.50;11.17;;;8.80;99.90;;;;;;4773530;30;20058;-79
2023/04/21 04:56:14;;;;;;;19.20;10.87;;;8.90;99.90;;;;;;4789780;30;20289;-80
2023/04/21 04:58:40;;;;;;;17.80;11.33;;;8.90;99.90;;;;;;4789144;30;20134;-80
2023/04/21 05:01:16;;;;;;;19.77;12.43;;;8.90;99.90;;;;;;4789143;30;20051;-79
2023/04/21 05:03:42;;;;;;;19.80;12.43;;;8.90;99.90;;;;;;4774061;30;20442;-80
2023/04/21 05:06:08;;;;;;;18.40;11.70;;;8.90;99.90;;;;;;4774010;30;20683;-80
2023/04/21 05:08:35;;;;;;;18.77;11.57;;;8.90;99.90;;;;;;4788992;30;20634;-80
2023/04/21 05:11:00;;;;;;;16.77;10.90;;;8.90;99.90;;;;;;4773002;30;20308;-80
2023/04/21 05:13:26;;;;;;;20.70;12.00;;;8.90;99.90;;;;;;4772889;30;20320;-80
2023/04/21 05:16:01;;;;;;;15.23;10.63;;;9.00;99.90;;;;;;4788856;30;20107;-80
2023/04/21 05:18:27;;;;;;;25.52;11.45;;;9.00;99.90;;;;;;4788945;30;20403;-80
2023/04/21 05:20:52;;;;;;;15.73;11.17;;;9.00;99.90;;;;;;4773759;30;20094;-80
2023/04/21 05:23:19;;;;;;;19.03;11.10;;;9.00;99.90;;;;;;4788571;29;20316;-80
2023/04/21 05:25:45;;;;;;;15.33;10.30;;;9.00;99.90;;;;;;4773168;30;20063;-80
2023/04/21 05:28:10;;;;;;;16.57;10.30;;;9.10;99.90;;;;;;4788733;30;20292;-80
2023/04/21 05:30:36;;;;;;;18.30;10.83;;;9.10;99.90;;;;;;4788741;30;20415;-81
2023/04/21 05:33:02;;;;;;;17.23;10.47;;;9.10;99.90;;;;;;4789167;30;20430;-80
2023/04/21 05:35:31;;;;;;;15.13;10.37;;;9.20;99.90;;;;;;4787504;30;20630;-80
2023/04/21 05:37:57;;;;;;;17.40;10.93;;;9.20;99.90;;;;;;4772785;30;20051;-80
2023/04/21 05:40:22;;;;;;;18.03;10.03;;;9.20;99.90;;;;;;4772403;30;20624;-80
2023/04/21 05:42:48;;;;;;;20.40;11.10;;;9.30;99.90;;;;;;4787432;30;20058;-80
2023/04/21 05:45:14;;;;;;;17.60;10.50;;;9.30;99.90;;;;;;4773407;30;20143;-81
2023/04/21 05:47:40;;;;;;;14.83;10.40;;;9.30;99.90;;;;;;4772742;30;20120;-81
2023/04/21 05:50:07;;;;;;;18.87;10.87;;;9.30;99.90;;;;;;4788979;30;20055;-81
2023/04/21 05:52:33;;;;;;;17.07;9.97;;;9.40;99.90;;;;;;4772277;30;20040;-81
2023/04/21 05:54:59;;;;;;;14.53;10.50;;;9.50;99.90;;;;;;4788294;30;20313;-81
2023/04/21 05:57:25;;;;;;;19.47;10.37;;;9.80;99.90;;;;;;4758478;30;20289;-81
2023/04/21 05:59:51;;;;;;;18.07;9.57;;;10.60;99.90;;;;;;4757943;30;20293;-81
2023/04/21 06:02:17;;;;;;;15.47;8.90;;;11.40;99.90;;;;;;4787474;30;20058;-81
2023/04/21 06:04:43;;;;;;;16.07;9.17;;;12.00;99.90;;;;;;4772509;30;20459;-81
2023/04/21 06:07:12;;;;;;;14.17;8.47;;;12.70;99.90;;;;;;4742751;30;20376;-81
2023/04/21 06:09:38;;;;;;;13.63;9.23;;;13.30;99.90;;;;;;4757874;30;20377;-81
2023/04/21 06:12:04;;;;;;;15.60;8.83;;;13.90;99.90;;;;;;4788298;30;20769;-81
2023/04/21 06:14:30;;;;;;;15.27;8.57;;;14.40;99.90;;;;;;4772206;30;20312;-81
2023/04/21 06:16:56;;;;;;;16.83;8.10;;;14.80;99.90;;;;;;4788396;30;20285;-81
2023/04/21 06:19:21;;;;;;;12.63;8.27;;;15.10;99.90;;;;;;4772258;30;20497;-81
2023/04/21 06:21:47;;;;;;;16.97;9.10;;;15.40;99.90;;;;;;4772279;30;20053;-81
2023/04/21 06:24:13;;;;;;;16.40;8.13;;;15.70;99.90;;;;;;4788086;30;20119;-82
2023/04/21 06:26:38;;;;;;;13.73;7.33;;;15.80;99.90;;;;;;4772269;30;20059;-82
2023/04/21 06:29:04;;;;;;;13.40;7.93;;;16.10;99.90;;;;;;4772175;30;20043;-82
2023/04/21 06:31:30;;;;;;;14.73;8.40;;;16.00;99.90;;;;;;4772322;30;20130;-81
2023/04/21 06:33:56;;;;;;;13.67;7.17;;;16.30;99.90;;;;;;4788514;29;20051;-82
2023/04/21 06:36:21;;;;;;;14.80;8.40;;;16.50;99.90;;;;;;4760104;30;20476;-83
2023/04/21 06:38:48;;;;;;;15.20;8.03;;;16.30;99.90;;;;;;4775860;30;20051;-82
2023/04/21 06:41:14;;;;;;;14.03;7.30;;;16.20;99.90;;;;;;4791059;30;20072;-82
2023/04/21 06:43:40;;;;;;;18.43;8.23;;;16.10;99.90;;;;;;4775898;30;20301;-81
2023/04/21 06:46:06;;;;;;;15.93;8.33;;;15.90;99.90;;;;;;4791426;30;20055;-81
2023/04/21 06:48:31;;;;;;;14.07;8.60;;;15.80;99.90;;;;;;4791434;30;20384;-82
2023/04/21 06:50:57;;;;;;;13.50;7.70;;;15.80;99.90;;;;;;4791407;30;20138;-82
2023/04/21 06:53:23;;;;;;;12.43;7.67;;;15.60;99.90;;;;;;4775685;30;20063;-80
2023/04/21 06:55:49;;;;;;;14.70;8.40;;;15.60;99.90;;;;;;4791998;30;20055;-81
2023/04/21 06:58:14;;;;;;;13.97;7.90;;;15.80;99.90;;;;;;4791305;30;20067;-82
2023/04/21 07:00:40;;;;;;;14.43;8.00;;;16.30;99.90;;;;;;4791511;30;20541;-82
2023/04/21 07:03:06;;;;;;;16.73;8.67;;;16.60;99.90;;;;;;4775629;30;20484;-82
2023/04/21 07:05:32;;;;;;;16.97;8.83;;;16.00;99.90;;;;;;4775146;30;20051;-82
2023/04/21 07:08:00;;;;;;;11.57;7.90;;;15.30;99.90;;;;;;4789907;30;20134;-82
2023/04/21 07:10:27;;;;;;;17.50;9.10;;;14.60;99.90;;;;;;4791021;30;20059;-82
2023/04/21 07:12:53;;;;;;;18.10;8.07;;;13.90;99.90;;;;;;4790975;30;20285;-82
2023/04/21 07:15:19;;;;;;;15.97;9.03;;;13.40;99.90;;;;;;4791460;30;20391;-81
2023/04/21 07:17:45;;;;;;;15.97;8.50;;;13.10;99.90;;;;;;4775030;30;20051;-82
2023/04/21 07:20:10;;;;;;;23.67;9.57;;;12.90;99.90;;;;;;4791395;30;20288;-82
2023/04/21 07:22:36;;;;;;;12.77;8.00;;;12.80;99.90;;;;;;4760849;30;20051;-82
2023/04/21 07:25:06;;;;;;;13.20;8.73;;;12.70;99.90;;;;;;4791256;30;20056;-82
2023/04/21 07:27:33;;;;;;;13.73;8.43;;;12.60;99.90;;;;;;4775509;30;20115;-82
2023/04/21 07:29:59;;;;;;;16.40;9.00;;;12.60;99.90;;;;;;4774756;30;20288;-82
2023/04/21 07:32:25;;;;;;;12.73;8.70;;;12.60;99.90;;;;;;4775370;30;20616;-82
2023/04/21 07:34:51;;;;;;;17.13;8.30;;;12.50;99.90;;;;;;4774353;30;20130;-82
2023/04/21 07:37:17;;;;;;;16.07;9.27;;;12.60;99.90;;;;;;4790506;30;20837;-82
2023/04/21 07:39:42;;;;;;;19.93;9.00;;;12.50;99.90;;;;;;4790157;30;20370;-81
2023/04/21 07:42:09;;;;;;;13.67;9.10;;;12.40;99.90;;;;;;4759436;30;20090;-82
2023/04/21 07:44:35;;;;;;;15.60;8.97;;;12.50;99.90;;;;;;4759836;30;20142;-82
2023/04/21 07:47:01;;;;;;;14.60;9.07;;;12.50;99.90;;;;;;4788948;29;20796;-82
2023/04/21 07:49:27;;;;;;;15.07;8.73;;;12.50;99.90;;;;;;4774387;30;20090;-81
2023/04/21 07:51:53;;;;;;;16.27;8.73;;;12.50;99.90;;;;;;4774500;30;20090;-82
2023/04/21 07:54:18;;;;;;;21.37;9.67;;;12.70;99.90;;;;;;4774206;30;20130;-81
2023/04/21 07:56:44;;;;;;;14.20;8.37;;;12.80;99.90;;;;;;4774380;30;20496;-81
2023/04/21 07:59:10;;;;;;;14.70;8.17;;;13.00;99.90;;;;;;4759399;30;20051;-82
2023/04/21 08:01:35;;;;;;;14.53;8.70;;;13.30;99.90;;;;;;4759507;30;20067;-82
2023/04/21 08:04:01;;;;;;;13.83;9.07;;;13.50;99.90;;;;;;4790853;30;20051;-82
2023/04/21 08:06:27;;;;;;;15.60;8.37;;;13.70;99.90;;;;;;4774060;30;20400;-82
2023/04/21 08:08:54;;;;;;;14.80;8.13;;;13.80;99.90;;;;;;4790107;30;20058;-82
2023/04/21 08:11:21;;;;;;;17.30;8.63;;;14.00;99.90;;;;;;4773931;30;20652;-81
2023/04/21 08:13:47;;;;;;;14.83;8.57;;;14.10;99.90;;;;;;4773998;30;20309;-82
2023/04/21 08:16:13;;;;;;;12.83;8.33;;;14.20;99.90;;;;;;4774112;30;20289;-82
2023/04/21 08:18:38;;;;;;;14.20;9.23;;;14.30;99.90;;;;;;4789946;30;20738;-82
2023/04/21 08:21:04;;;;;;;17.80;8.10;;;14.30;99.90;;;;;;4789776;30;20055;-81
2023/04/21 08:23:30;;;;;;;16.33;8.30;;;14.50;99.90;;;;;;4773905;30;20051;-82
2023/04/21 08:25:56;;;;;;;14.23;8.37;;;14.60;99.90;;;;;;4773687;30;20130;-82
2023/04/21 08:28:22;;;;;;;14.67;8.07;;;14.70;99.90;;;;;;4773779;30;20073;-81
2023/04/21 08:30:47;;;;;;;19.57;9.63;;;14.70;99.90;;;;;;4774179;30;20058;-81
2023/04/21 08:33:13;;;;;;;14.50;8.27;;;14.70;99.90;;;;;;4759121;30;20047;-81
2023/04/21 08:35:42;;;;;;;14.47;8.37;;;14.70;99.90;;;;;;4773704;30;20079;-82
2023/04/21 08:38:08;;;;;;;17.97;8.97;;;14.80;99.90;;;;;;4773652;30;20382;-81
2023/04/21 08:40:36;;;;;;;15.50;8.80;;;14.90;99.90;;;;;;4773802;30;20304;-82
2023/04/21 08:43:06;;;;;;;15.57;8.40;;;14.90;99.90;;;;;;4773339;30;20489;-81
2023/04/21 08:45:33;;;;;;;13.00;8.17;;;14.90;99.90;;;;;;4774271;30;20297;-81
2023/04/21 08:48:01;;;;;;;14.87;8.83;;;14.90;99.90;;;;;;4773181;30;20305;-81
2023/04/21 08:50:29;;;;;;;14.53;8.90;;;15.00;99.90;;;;;;4789146;30;20288;-81
2023/04/21 08:52:56;;;;;;;14.77;8.70;;;15.00;99.90;;;;;;4774150;30;20389;-81
2023/04/21 08:55:27;;;;;;;17.43;8.33;;;15.00;99.90;;;;;;4773760;30;20313;-81
2023/04/21 08:57:53;;;;;;;16.23;8.93;;;15.00;99.90;;;;;;4788940;29;20293;-82
2023/04/21 09:00:20;;;;;;;15.50;8.73;;;15.00;99.90;;;;;;4789126;30;20307;-82
2023/04/21 09:02:56;;;;;;;15.10;8.83;;;14.90;99.90;;;;;;4774070;30;20051;-82
2023/04/21 09:05:24;;;;;;;14.43;9.20;;;14.90;99.90;;;;;;4773192;30;20781;-82
2023/04/21 09:07:52;;;;;;;16.17;9.27;;;14.90;99.90;;;;;;4789015;30;20289;-82
2023/04/21 09:10:23;;;;;;;14.30;8.97;;;14.90;99.90;;;;;;4758917;30;20289;-82
2023/04/21 09:12:54;;;;;;;12.57;8.57;;;14.90;99.90;;;;;;4758434;30;20359;-82
2023/04/21 09:15:21;;;;;;;18.80;8.90;;;14.80;99.90;;;;;;4772941;30;20305;-82
2023/04/21 09:17:53;;;;;;;18.30;9.73;;;14.90;99.90;;;;;;4788034;30;20281;-82
2023/04/21 09:20:21;;;;;;;14.27;9.33;;;14.90;99.90;;;;;;4788921;30;20292;-83
2023/04/21 09:22:50;;;;;;;15.77;8.73;;;14.90;99.90;;;;;;4788779;30;20293;-82
2023/04/21 09:25:19;;;;;;;16.40;8.97;;;15.00;99.90;;;;;;4788772;30;20293;-82
2023/04/21 09:27:45;;;;;;;15.23;8.97;;;15.00;99.90;;;;;;4758261;30;20319;-82
2023/04/21 09:30:11;;;;;;;17.27;8.43;;;15.10;99.90;;;;;;4758049;30;20301;-82
2023/04/21 09:32:40;;;;;;;15.17;8.80;;;15.20;99.90;;;;;;4758749;30;20380;-83
2023/04/21 09:35:10;;;;;;;13.00;8.10;;;15.20;99.90;;;;;;4772453;30;20062;-83
2023/04/21 09:37:37;;;;;;;15.33;7.97;;;15.30;99.90;;;;;;4772729;30;20401;-82
2023/04/21 09:40:03;;;;;;;12.43;8.17;;;15.40;99.90;;;;;;4757583;30;20063;-83
2023/04/21 09:42:34;;;;;;;18.00;9.53;;;15.50;99.90;;;;;;4787506;30;20297;-83
2023/04/21 09:45:00;;;;;;;16.03;8.27;;;15.50;99.90;;;;;;4788529;30;20293;-82
2023/04/21 09:47:30;;;;;;;11.50;7.70;;;15.60;99.90;;;;;;4772464;30;20135;-82
2023/04/21 09:49:57;;;;;;;15.03;8.03;;;15.70;99.90;;;;;;4758169;30;20429;-82
2023/04/21 09:52:26;;;;;;;16.80;8.53;;;15.70;99.90;;;;;;4757720;30;20066;-82
2023/04/21 09:54:59;;;;;;;14.90;8.70;;;15.80;99.90;;;;;;4772274;30;20132;-82
2023/04/21 09:57:28;;;;;;;13.33;8.07;;;15.80;99.90;;;;;;4773116;30;20058;-83
2023/04/21 09:59:57;;;;;;;10.70;8.03;;;15.90;99.90;;;;;;4773015;30;20063;-83
2023/04/21 10:02:30;;;;;;;15.80;9.03;;;16.00;99.90;;;;;;4772497;30;20054;-83
2023/04/21 10:04:56;;;;;;;17.97;8.43;;;16.10;99.90;;;;;;4787749;30;20159;-83
2023/04/21 10:07:22;;;;;;;16.23;8.37;;;16.00;99.90;;;;;;4788222;30;20090;-83
2023/04/21 10:09:54;;;;;;;16.90;8.50;;;15.90;99.90;;;;;;4789377;29;20151;-83
2023/04/21 10:12:21;;;;;;;16.50;8.40;;;16.00;99.90;;;;;;4761578;30;20059;-84
2023/04/21 10:14:54;;;;;;;15.40;8.60;;;16.00;99.90;;;;;;4775815;30;20074;-84
2023/04/21 10:17:25;;;;;;;14.63;8.30;;;16.00;99.90;;;;;;4776169;30;20416;-83
2023/04/21 10:19:56;;;;;;;13.97;8.53;;;16.20;99.90;;;;;;4791866;30;20044;-83
2023/04/21 10:22:35;;;;;;;13.33;8.57;;;16.20;99.90;;;;;;4776673;30;20055;-83
2023/04/21 10:25:02;;;;;;;15.10;9.07;;;16.20;99.90;;;;;;4761110;30;20111;-83
2023/04/21 10:27:42;;;;;;;17.10;9.00;;;16.30;99.90;;;;;;4791721;30;20055;-83
2023/04/21 10:30:19;;;;;;;15.90;8.33;;;16.40;99.90;;;;;;4775745;30;20063;-83
2023/04/21 10:32:45;;;;;;;13.83;8.20;;;16.60;99.90;;;;;;4775662;30;20051;-83
2023/04/21 10:35:14;;;;;;;17.93;8.90;;;16.60;99.90;;;;;;4746178;30;20051;-83
2023/04/21 10:37:42;;;;;;;13.70;7.93;;;16.70;99.90;;;;;;4775919;30;20055;-83
2023/04/21 10:40:29;;;;;;;14.90;8.03;;;16.90;99.90;;;;;;4791475;30;20068;-83
2023/04/21 10:42:55;;;;;;;20.00;8.73;;;17.00;99.90;;;;;;4775624;30;20055;-84
2023/04/21 10:45:24;;;;;;;10.53;7.70;;;16.90;99.90;;;;;;4761601;30;20366;-83
2023/04/21 10:47:51;;;;;;;13.80;8.93;;;16.80;99.90;;;;;;4791435;30;20480;-83
2023/04/21 10:50:28;;;;;;;16.53;9.00;;;16.70;99.90;;;;;;4760751;30;20146;-83
2023/04/21 10:53:07;;;;;;;13.97;8.83;;;16.70;99.90;;;;;;4791380;30;20055;-83
2023/04/21 10:55:33;;;;;;;16.37;8.57;;;16.70;99.90;;;;;;4792057;30;20051;-84
2023/04/21 10:58:04;;;;;;;16.17;8.80;;;16.60;99.90;;;;;;4760681;30;20412;-83
2023/04/21 11:00:31;;;;;;;14.67;8.90;;;16.70;99.90;;;;;;4775606;30;20051;-83
2023/04/21 11:03:02;;;;;;;16.73;8.57;;;16.80;99.90;;;;;;4775291;30;20063;-82
2023/04/21 11:05:39;;;;;;;15.80;8.17;;;16.90;99.90;;;;;;4775474;30;20185;-83
2023/04/21 11:08:08;;;;;;;15.27;8.53;;;16.90;99.90;;;;;;4760727;30;20069;-83
2023/04/21 11:10:58;;;;;;;15.20;8.77;;;16.90;99.90;;;;;;4774857;30;20143;-83
2023/04/21 11:13:26;;;;;;;14.50;8.40;;;16.90;99.90;;;;;;4775382;30;20055;-83
2023/04/21 11:15:56;;;;;;;16.47;10.03;;;17.10;99.90;;;;;;4774794;30;20059;-83
2023/04/21 11:18:36;;;;;;;12.63;8.60;;;17.20;99.90;;;;;;4789789;30;20061;-83
2023/04/21 11:21:11;;;;;;;11.70;8.47;;;17.30;99.60;;;;;;4760059;30;20409;-83
2023/04/21 11:23:41;;;;;;;;;;;17.40;99.90;;;;;;4775662;30;20055;-83
2023/04/21 11:26:06;;;;;;;14.97;9.03;;;17.60;99.80;;;;;;4774913;30;19952;-84
2023/04/21 11:28:32;;;;;;;12.77;8.50;;;17.60;99.30;;;;;;4790719;30;20051;-83
2023/04/21 11:30:58;;;;;;;13.07;8.37;;;17.70;97.20;;;;;;4774706;30;20101;-82
2023/04/21 11:33:26;;;;;;;16.93;9.47;;;17.70;97.70;;;;;;4759950;30;20051;-83
2023/04/21 11:35:57;;;;;;;13.10;8.37;;;17.80;96.50;;;;;;4790659;30;20051;-83
2023/04/21 11:38:23;;;;;;;13.37;7.87;;;17.90;97.60;;;;;;4775803;30;20066;-83
2023/04/21 11:40:50;;;;;;;12.03;8.53;;;18.10;97.50;;;;;;4790175;30;20138;-83
2023/04/21 11:43:16;;;;;;;12.33;8.10;;;18.10;96.30;;;;;;4790967;30;20055;-84
2023/04/21 11:45:42;;;;;;;12.73;8.03;;;18.20;95.60;;;;;;4774396;30;20058;-83
2023/04/21 11:48:18;;;;;;;17.43;8.13;;;18.20;94.70;;;;;;4790369;30;20133;-84
2023/04/21 11:50:50;;;;;;;13.00;8.10;;;18.20;93.10;;;;;;4759641;30;20501;-83
2023/04/21 11:53:16;;;;;;;13.93;7.30;;;18.20;95.00;;;;;;4774194;30;20431;-83
2023/04/21 11:55:44;;;;;;;14.27;7.97;;;18.20;93.00;;;;;;4790312;30;20143;-83
2023/04/21 11:58:14;;;;;;;12.67;7.20;;;18.30;93.60;;;;;;4791067;30;20431;-83
2023/04/21 12:00:40;;;;;;;13.43;7.70;;;18.30;92.60;;;;;;4789760;30;20438;-83
2023/04/21 12:03:09;;;;;;;11.20;7.73;;;18.30;91.60;;;;;;4790359;30;20130;-83
2023/04/21 12:05:35;;;;;;;12.53;7.20;;;18.30;90.40;;;;;;4774180;30;20063;-83
2023/04/21 12:08:02;;;;;;;11.83;8.17;;;18.20;90.60;;;;;;4774906;30;20098;-83
2023/04/21 12:10:28;;;;;;;13.50;7.67;;;18.20;89.20;;;;;;4774096;30;20055;-83
2023/04/21 12:12:55;;;;;;;11.43;8.00;;;18.20;91.60;;;;;;4789915;30;20063;-83
2023/04/21 12:15:22;;;;;;;11.67;6.80;;;18.30;92.20;;;;;;4774389;30;20130;-83
2023/04/21 12:17:52;;;;;;;14.13;6.67;;;18.40;84.30;;;;;;4789928;30;20140;-83
2023/04/21 12:20:19;;;;;;;14.00;6.53;;;18.40;90.10;;;;;;4789362;30;20095;-83
2023/04/21 12:22:45;;;;;;;12.17;6.57;;;18.50;86.60;;;;;;4774597;30;20105;-83
2023/04/21 12:25:12;;;;;;;14.13;5.93;;;18.40;89.00;;;;;;4759137;30;20093;-83
2023/04/21 12:27:47;;;;;;;11.67;5.53;;;18.40;85.30;;;;;;4789080;30;20067;-83
2023/04/21 12:30:13;;;;;;;13.23;6.87;;;18.50;81.70;;;;;;4774089;30;20063;-83
2023/04/21 12:32:38;;;;;;;14.20;6.10;;;18.50;85.50;;;;;;4789352;30;20055;-83
2023/04/21 12:35:04;;;;;;;11.07;5.53;;;18.50;83.00;;;;;;4744650;30;20495;-83
2023/04/21 12:37:30;;;;;;;10.83;6.00;;;18.60;84.00;;;;;;4790415;30;20104;-81